Bathurst, Australia
Current Conditions -  °F | °C
As of 8:00 PM on Wednesday 28 Jan 2015 (Local Time) from YMDG Reporting Station
Scattered Clouds Scattered Clouds  
Wind Chill: 63°   Ceiling: Unl
Heat Index: 63°   Visibility: NA
Dew Point: 52°   Wind: 10mph
Humidity: 68%   Direction: 140°SE
Pressure: 29.94"   Gusts: NA
Location:  33.42°S, 149.57°E
Report Text: YMDG 280900Z AUTO 14009KT //// // SCT110 17/11 Q1014
Loading
Personal Weather Stations






























Interactive Weather Map New forecast layout! Learn more

10-Day Weather Forecast

Advertisements
Track Severe Weather on mobile